sensor_id;sensor_type;location;lat;lon;timestamp;temperature;humidity
16643;DHT22;8435;52.184;5.406;2023-06-04T00:02:20;17.20;70.60
16643;DHT22;8435;52.184;5.406;2023-06-04T00:04:46;17.20;70.50
16643;DHT22;8435;52.184;5.406;2023-06-04T00:07:15;17.10;70.60
16643;DHT22;8435;52.184;5.406;2023-06-04T00:09:41;17.10;71.00
16643;DHT22;8435;52.184;5.406;2023-06-04T00:12:09;17.10;71.00
16643;DHT22;8435;52.184;5.406;2023-06-04T00:14:36;17.10;71.10
16643;DHT22;8435;52.184;5.406;2023-06-04T00:17:03;17.00;71.30
16643;DHT22;8435;52.184;5.406;2023-06-04T00:19:30;17.00;71.50
16643;DHT22;8435;52.184;5.406;2023-06-04T00:21:57;16.90;71.50
16643;DHT22;8435;52.184;5.406;2023-06-04T00:24:25;16.90;71.70
16643;DHT22;8435;52.184;5.406;2023-06-04T00:26:51;16.90;72.00
16643;DHT22;8435;52.184;5.406;2023-06-04T00:29:18;16.90;72.00
16643;DHT22;8435;52.184;5.406;2023-06-04T00:31:45;16.90;72.10
16643;DHT22;8435;52.184;5.406;2023-06-04T00:34:12;16.80;72.00
16643;DHT22;8435;52.184;5.406;2023-06-04T00:36:39;16.80;72.20
16643;DHT22;8435;52.184;5.406;2023-06-04T00:39:06;16.80;72.40
16643;DHT22;8435;52.184;5.406;2023-06-04T00:41:34;16.80;72.40
16643;DHT22;8435;52.184;5.406;2023-06-04T00:44:01;16.70;72.70
16643;DHT22;8435;52.184;5.406;2023-06-04T00:46:32;16.70;72.80
16643;DHT22;8435;52.184;5.406;2023-06-04T00:49:01;16.70;73.00
16643;DHT22;8435;52.184;5.406;2023-06-04T00:51:29;16.70;73.00
16643;DHT22;8435;52.184;5.406;2023-06-04T00:53:56;16.60;73.10
16643;DHT22;8435;52.184;5.406;2023-06-04T00:56:24;16.60;73.10
16643;DHT22;8435;52.184;5.406;2023-06-04T00:58:52;16.60;73.30
16643;DHT22;8435;52.184;5.406;2023-06-04T01:01:29;16.50;73.50
16643;DHT22;8435;52.184;5.406;2023-06-04T01:04:00;16.50;73.80
16643;DHT22;8435;52.184;5.406;2023-06-04T01:06:33;16.50;73.70
16643;DHT22;8435;52.184;5.406;2023-06-04T01:09:02;16.40;73.80
16643;DHT22;8435;52.184;5.406;2023-06-04T01:11:31;16.40;73.50
16643;DHT22;8435;52.184;5.406;2023-06-04T01:14:01;16.40;73.70
16643;DHT22;8435;52.184;5.406;2023-06-04T01:16:32;16.30;73.90
16643;DHT22;8435;52.184;5.406;2023-06-04T01:19:02;16.30;74.20
16643;DHT22;8435;52.184;5.406;2023-06-04T01:21:34;16.30;74.10
16643;DHT22;8435;52.184;5.406;2023-06-04T01:24:05;16.20;74.10
16643;DHT22;8435;52.184;5.406;2023-06-04T01:26:33;16.20;74.50
16643;DHT22;8435;52.184;5.406;2023-06-04T01:29:02;16.20;74.30
16643;DHT22;8435;52.184;5.406;2023-06-04T01:31:29;16.20;74.70
16643;DHT22;8435;52.184;5.406;2023-06-04T01:33:58;16.10;74.40
16643;DHT22;8435;52.184;5.406;2023-06-04T01:36:28;16.10;74.40
16643;DHT22;8435;52.184;5.406;2023-06-04T01:38:54;16.00;74.50
16643;DHT22;8435;52.184;5.406;2023-06-04T01:41:21;16.00;74.60
16643;DHT22;8435;52.184;5.406;2023-06-04T01:43:48;16.00;74.90
16643;DHT22;8435;52.184;5.406;2023-06-04T01:46:16;15.90;74.80
16643;DHT22;8435;52.184;5.406;2023-06-04T01:48:43;15.90;75.00
16643;DHT22;8435;52.184;5.406;2023-06-04T01:51:10;15.90;75.00
16643;DHT22;8435;52.184;5.406;2023-06-04T01:53:36;15.90;75.10
16643;DHT22;8435;52.184;5.406;2023-06-04T01:56:03;15.80;75.20
16643;DHT22;8435;52.184;5.406;2023-06-04T01:58:30;15.80;75.30
16643;DHT22;8435;52.184;5.406;2023-06-04T02:00:57;15.80;75.30
16643;DHT22;8435;52.184;5.406;2023-06-04T02:03:27;15.80;75.30
16643;DHT22;8435;52.184;5.406;2023-06-04T02:05:53;15.80;75.40
16643;DHT22;8435;52.184;5.406;2023-06-04T02:08:20;15.80;75.40
16643;DHT22;8435;52.184;5.406;2023-06-04T02:10:47;15.70;75.30
16643;DHT22;8435;52.184;5.406;2023-06-04T02:13:14;15.70;75.50
16643;DHT22;8435;52.184;5.406;2023-06-04T02:15:41;15.70;75.50
16643;DHT22;8435;52.184;5.406;2023-06-04T02:18:13;15.70;75.60
16643;DHT22;8435;52.184;5.406;2023-06-04T02:20:43;15.60;75.80
16643;DHT22;8435;52.184;5.406;2023-06-04T02:23:10;15.60;75.80
16643;DHT22;8435;52.184;5.406;2023-06-04T02:25:37;15.60;75.70
16643;DHT22;8435;52.184;5.406;2023-06-04T02:28:03;15.60;75.70
16643;DHT22;8435;52.184;5.406;2023-06-04T02:30:30;15.60;75.90
16643;DHT22;8435;52.184;5.406;2023-06-04T02:33:00;15.60;76.00
16643;DHT22;8435;52.184;5.406;2023-06-04T02:35:27;15.50;76.30
16643;DHT22;8435;52.184;5.406;2023-06-04T02:37:55;15.50;76.00
16643;DHT22;8435;52.184;5.406;2023-06-04T02:40:23;15.50;76.40
16643;DHT22;8435;52.184;5.406;2023-06-04T02:42:50;15.50;76.30
16643;DHT22;8435;52.184;5.406;2023-06-04T02:45:17;15.40;76.30
16643;DHT22;8435;52.184;5.406;2023-06-04T02:47:43;15.40;76.50
16643;DHT22;8435;52.184;5.406;2023-06-04T02:50:12;15.40;77.30
16643;DHT22;8435;52.184;5.406;2023-06-04T02:52:42;15.40;76.70
16643;DHT22;8435;52.184;5.406;2023-06-04T02:55:10;15.40;77.00
16643;DHT22;8435;52.184;5.406;2023-06-04T02:57:39;15.30;77.20
16643;DHT22;8435;52.184;5.406;2023-06-04T03:00:08;15.30;77.30
16643;DHT22;8435;52.184;5.406;2023-06-04T03:02:38;15.30;77.30
16643;DHT22;8435;52.184;5.406;2023-06-04T03:05:05;15.30;77.40
16643;DHT22;8435;52.184;5.406;2023-06-04T03:07:32;15.20;77.60
16643;DHT22;8435;52.184;5.406;2023-06-04T03:09:59;15.20;77.80
16643;DHT22;8435;52.184;5.406;2023-06-04T03:12:27;15.20;77.90
16643;DHT22;8435;52.184;5.406;2023-06-04T03:14:54;15.20;78.30
16643;DHT22;8435;52.184;5.406;2023-06-04T03:17:21;15.20;78.30
16643;DHT22;8435;52.184;5.406;2023-06-04T03:19:47;15.20;78.60
16643;DHT22;8435;52.184;5.406;2023-06-04T03:22:14;15.10;78.80
16643;DHT22;8435;52.184;5.406;2023-06-04T03:24:41;15.10;79.00
16643;DHT22;8435;52.184;5.406;2023-06-04T03:27:09;15.10;79.20
16643;DHT22;8435;52.184;5.406;2023-06-04T03:29:38;15.00;79.50
16643;DHT22;8435;52.184;5.406;2023-06-04T03:32:06;15.10;79.90
16643;DHT22;8435;52.184;5.406;2023-06-04T03:34:33;15.10;80.10
16643;DHT22;8435;52.184;5.406;2023-06-04T03:37:00;15.10;80.50
16643;DHT22;8435;52.184;5.406;2023-06-04T03:39:27;15.10;80.80
16643;DHT22;8435;52.184;5.406;2023-06-04T03:41:54;15.00;81.00
16643;DHT22;8435;52.184;5.406;2023-06-04T03:44:22;15.10;81.40
16643;DHT22;8435;52.184;5.406;2023-06-04T03:46:52;15.00;81.80
16643;DHT22;8435;52.184;5.406;2023-06-04T03:49:21;15.00;82.30
16643;DHT22;8435;52.184;5.406;2023-06-04T03:51:48;15.00;82.20
16643;DHT22;8435;52.184;5.406;2023-06-04T03:54:15;15.00;82.50
16643;DHT22;8435;52.184;5.406;2023-06-04T03:56:44;15.00;82.70
16643;DHT22;8435;52.184;5.406;2023-06-04T03:59:10;15.00;83.20
16643;DHT22;8435;52.184;5.406;2023-06-04T04:01:37;15.00;83.50
16643;DHT22;8435;52.184;5.406;2023-06-04T04:04:09;15.00;84.00
16643;DHT22;8435;52.184;5.406;2023-06-04T04:06:35;15.00;84.70
16643;DHT22;8435;52.184;5.406;2023-06-04T04:09:02;15.00;84.70
16643;DHT22;8435;52.184;5.406;2023-06-04T04:11:31;15.00;85.00
16643;DHT22;8435;52.184;5.406;2023-06-04T04:13:57;15.10;85.40
16643;DHT22;8435;52.184;5.406;2023-06-04T04:16:24;15.10;85.60
16643;DHT22;8435;52.184;5.406;2023-06-04T04:18:53;15.10;85.80
16643;DHT22;8435;52.184;5.406;2023-06-04T04:21:21;15.20;86.10
16643;DHT22;8435;52.184;5.406;2023-06-04T04:23:49;15.20;86.60
16643;DHT22;8435;52.184;5.406;2023-06-04T04:26:16;15.30;86.50
16643;DHT22;8435;52.184;5.406;2023-06-04T04:28:43;15.30;86.50
16643;DHT22;8435;52.184;5.406;2023-06-04T04:31:10;15.30;86.60
16643;DHT22;8435;52.184;5.406;2023-06-04T04:33:37;15.30;86.90
16643;DHT22;8435;52.184;5.406;2023-06-04T04:36:05;15.30;86.80
16643;DHT22;8435;52.184;5.406;2023-06-04T04:38:36;15.30;87.10
16643;DHT22;8435;52.184;5.406;2023-06-04T04:41:02;15.30;87.30
16643;DHT22;8435;52.184;5.406;2023-06-04T04:43:30;15.30;87.60
16643;DHT22;8435;52.184;5.406;2023-06-04T04:45:57;15.30;88.00
16643;DHT22;8435;52.184;5.406;2023-06-04T04:48:24;15.30;88.10
16643;DHT22;8435;52.184;5.406;2023-06-04T04:50:51;15.40;88.30
16643;DHT22;8435;52.184;5.406;2023-06-04T04:53:18;15.30;88.60
16643;DHT22;8435;52.184;5.406;2023-06-04T04:55:46;15.40;89.00
16643;DHT22;8435;52.184;5.406;2023-06-04T04:58:14;15.40;89.70
16643;DHT22;8435;52.184;5.406;2023-06-04T05:00:41;15.40;89.40
16643;DHT22;8435;52.184;5.406;2023-06-04T05:03:08;15.40;89.40
16643;DHT22;8435;52.184;5.406;2023-06-04T05:05:35;15.40;89.70
16643;DHT22;8435;52.184;5.406;2023-06-04T05:08:03;15.30;89.90
16643;DHT22;8435;52.184;5.406;2023-06-04T05:10:30;15.50;90.00
16643;DHT22;8435;52.184;5.406;2023-06-04T05:12:58;15.50;90.20
16643;DHT22;8435;52.184;5.406;2023-06-04T05:15:26;15.50;90.30
16643;DHT22;8435;52.184;5.406;2023-06-04T05:17:55;15.50;90.30
16643;DHT22;8435;52.184;5.406;2023-06-04T05:20:23;15.50;90.30
16643;DHT22;8435;52.184;5.406;2023-06-04T05:22:50;15.60;90.30
16643;DHT22;8435;52.184;5.406;2023-06-04T05:25:17;15.60;90.40
16643;DHT22;8435;52.184;5.406;2023-06-04T05:27:47;15.60;90.40
16643;DHT22;8435;52.184;5.406;2023-06-04T05:30:17;15.70;90.60
16643;DHT22;8435;52.184;5.406;2023-06-04T05:32:43;15.70;90.60
16643;DHT22;8435;52.184;5.406;2023-06-04T05:35:10;15.70;90.50
16643;DHT22;8435;52.184;5.406;2023-06-04T05:37:38;15.80;90.50
16643;DHT22;8435;52.184;5.406;2023-06-04T05:40:06;15.80;90.70
16643;DHT22;8435;52.184;5.406;2023-06-04T05:42:34;15.90;90.90
16643;DHT22;8435;52.184;5.406;2023-06-04T05:45:02;16.10;91.00
16643;DHT22;8435;52.184;5.406;2023-06-04T05:47:31;16.20;90.80
16643;DHT22;8435;52.184;5.406;2023-06-04T05:49:58;16.30;90.60
16643;DHT22;8435;52.184;5.406;2023-06-04T05:52:25;16.40;90.50
16643;DHT22;8435;52.184;5.406;2023-06-04T05:54:51;16.50;90.40
16643;DHT22;8435;52.184;5.406;2023-06-04T05:57:18;16.50;90.10
16643;DHT22;8435;52.184;5.406;2023-06-04T05:59:45;16.60;90.10
16643;DHT22;8435;52.184;5.406;2023-06-04T06:02:12;16.60;89.90
16643;DHT22;8435;52.184;5.406;2023-06-04T06:04:41;16.60;89.90
16643;DHT22;8435;52.184;5.406;2023-06-04T06:07:08;16.70;90.20
16643;DHT22;8435;52.184;5.406;2023-06-04T06:09:37;16.90;90.10
16643;DHT22;8435;52.184;5.406;2023-06-04T06:12:04;17.00;89.80
16643;DHT22;8435;52.184;5.406;2023-06-04T06:14:31;17.10;89.50
16643;DHT22;8435;52.184;5.406;2023-06-04T06:16:58;17.20;88.90
16643;DHT22;8435;52.184;5.406;2023-06-04T06:19:25;17.30;88.40
16643;DHT22;8435;52.184;5.406;2023-06-04T06:21:54;17.30;88.20
16643;DHT22;8435;52.184;5.406;2023-06-04T06:24:21;17.40;88.70
16643;DHT22;8435;52.184;5.406;2023-06-04T06:26:47;17.50;88.60
16643;DHT22;8435;52.184;5.406;2023-06-04T06:29:14;17.60;88.10
16643;DHT22;8435;52.184;5.406;2023-06-04T06:31:41;17.70;87.30
16643;DHT22;8435;52.184;5.406;2023-06-04T06:34:08;17.90;87.00
16643;DHT22;8435;52.184;5.406;2023-06-04T06:36:34;18.00;86.90
16643;DHT22;8435;52.184;5.406;2023-06-04T06:39:03;18.20;87.30
16643;DHT22;8435;52.184;5.406;2023-06-04T06:41:29;18.50;87.70
16643;DHT22;8435;52.184;5.406;2023-06-04T06:43:56;18.90;87.70
16643;DHT22;8435;52.184;5.406;2023-06-04T06:46:23;19.40;87.60
16643;DHT22;8435;52.184;5.406;2023-06-04T06:48:50;19.90;86.40
16643;DHT22;8435;52.184;5.406;2023-06-04T06:51:17;20.50;85.30
16643;DHT22;8435;52.184;5.406;2023-06-04T06:53:43;21.00;84.10
16643;DHT22;8435;52.184;5.406;2023-06-04T06:56:13;21.50;82.40
16643;DHT22;8435;52.184;5.406;2023-06-04T06:58:40;22.10;79.80
16643;DHT22;8435;52.184;5.406;2023-06-04T07:01:08;22.60;79.20
16643;DHT22;8435;52.184;5.406;2023-06-04T07:03:35;23.00;76.70
16643;DHT22;8435;52.184;5.406;2023-06-04T07:06:04;23.40;75.30
16643;DHT22;8435;52.184;5.406;2023-06-04T07:08:32;23.80;73.40
16643;DHT22;8435;52.184;5.406;2023-06-04T07:11:07;24.20;72.00
16643;DHT22;8435;52.184;5.406;2023-06-04T07:13:38;24.50;70.50
16643;DHT22;8435;52.184;5.406;2023-06-04T07:16:05;24.80;69.10
16643;DHT22;8435;52.184;5.406;2023-06-04T07:18:32;25.10;69.00
16643;DHT22;8435;52.184;5.406;2023-06-04T07:20:59;25.40;68.10
16643;DHT22;8435;52.184;5.406;2023-06-04T07:23:26;25.70;66.90
16643;DHT22;8435;52.184;5.406;2023-06-04T07:25:53;26.00;65.80
16643;DHT22;8435;52.184;5.406;2023-06-04T07:28:20;26.20;64.10
16643;DHT22;8435;52.184;5.406;2023-06-04T07:30:48;26.40;64.00
16643;DHT22;8435;52.184;5.406;2023-06-04T07:33:15;26.50;63.80
16643;DHT22;8435;52.184;5.406;2023-06-04T07:35:42;26.70;63.10
16643;DHT22;8435;52.184;5.406;2023-06-04T07:38:08;26.80;62.60
16643;DHT22;8435;52.184;5.406;2023-06-04T07:40:35;27.00;62.60
16643;DHT22;8435;52.184;5.406;2023-06-04T07:43:02;27.20;62.10
16643;DHT22;8435;52.184;5.406;2023-06-04T07:45:28;27.30;61.50
16643;DHT22;8435;52.184;5.406;2023-06-04T07:47:57;27.50;61.10
16643;DHT22;8435;52.184;5.406;2023-06-04T07:50:24;27.70;60.10
16643;DHT22;8435;52.184;5.406;2023-06-04T07:52:51;27.80;60.00
16643;DHT22;8435;52.184;5.406;2023-06-04T07:55:18;28.00;59.80
16643;DHT22;8435;52.184;5.406;2023-06-04T07:57:44;28.20;59.10
16643;DHT22;8435;52.184;5.406;2023-06-04T08:00:12;28.30;58.10
16643;DHT22;8435;52.184;5.406;2023-06-04T08:02:40;28.40;57.20
16643;DHT22;8435;52.184;5.406;2023-06-04T08:05:08;28.50;57.10
16643;DHT22;8435;52.184;5.406;2023-06-04T08:07:35;28.60;56.30
16643;DHT22;8435;52.184;5.406;2023-06-04T08:10:02;28.60;56.40
16643;DHT22;8435;52.184;5.406;2023-06-04T08:12:29;28.60;56.30
16643;DHT22;8435;52.184;5.406;2023-06-04T08:14:55;28.70;56.10
16643;DHT22;8435;52.184;5.406;2023-06-04T08:17:23;28.70;55.70
16643;DHT22;8435;52.184;5.406;2023-06-04T08:19:50;28.70;55.10
16643;DHT22;8435;52.184;5.406;2023-06-04T08:22:18;28.70;54.80
16643;DHT22;8435;52.184;5.406;2023-06-04T08:24:44;28.70;54.70
16643;DHT22;8435;52.184;5.406;2023-06-04T08:27:12;28.80;54.80
16643;DHT22;8435;52.184;5.406;2023-06-04T08:29:39;28.80;54.60
16643;DHT22;8435;52.184;5.406;2023-06-04T08:32:06;28.90;54.40
16643;DHT22;8435;52.184;5.406;2023-06-04T08:34:33;28.90;53.70
16643;DHT22;8435;52.184;5.406;2023-06-04T08:37:00;29.00;53.40
16643;DHT22;8435;52.184;5.406;2023-06-04T08:39:29;28.90;53.10
16643;DHT22;8435;52.184;5.406;2023-06-04T08:41:59;28.80;53.40
16643;DHT22;8435;52.184;5.406;2023-06-04T08:44:27;28.80;53.10
16643;DHT22;8435;52.184;5.406;2023-06-04T08:47:04;28.80;53.40
16643;DHT22;8435;52.184;5.406;2023-06-04T08:49:34;28.80;52.60
16643;DHT22;8435;52.184;5.406;2023-06-04T08:52:02;28.90;52.90
16643;DHT22;8435;52.184;5.406;2023-06-04T08:54:30;28.90;52.80
16643;DHT22;8435;52.184;5.406;2023-06-04T08:56:57;28.90;52.40
16643;DHT22;8435;52.184;5.406;2023-06-04T08:59:24;28.90;52.60
16643;DHT22;8435;52.184;5.406;2023-06-04T09:01:52;28.90;52.70
16643;DHT22;8435;52.184;5.406;2023-06-04T09:04:19;29.00;52.20
16643;DHT22;8435;52.184;5.406;2023-06-04T09:06:47;28.90;52.50
16643;DHT22;8435;52.184;5.406;2023-06-04T09:09:14;28.90;51.80
16643;DHT22;8435;52.184;5.406;2023-06-04T09:11:46;29.00;51.60
16643;DHT22;8435;52.184;5.406;2023-06-04T09:14:15;29.00;51.50
16643;DHT22;8435;52.184;5.406;2023-06-04T09:16:43;29.00;51.70
16643;DHT22;8435;52.184;5.406;2023-06-04T09:19:10;29.00;51.90
16643;DHT22;8435;52.184;5.406;2023-06-04T09:21:47;29.00;51.90
16643;DHT22;8435;52.184;5.406;2023-06-04T09:24:13;29.10;50.90
16643;DHT22;8435;52.184;5.406;2023-06-04T09:26:40;29.10;51.30
16643;DHT22;8435;52.184;5.406;2023-06-04T09:29:09;29.20;51.00
16643;DHT22;8435;52.184;5.406;2023-06-04T09:31:36;29.20;50.80
16643;DHT22;8435;52.184;5.406;2023-06-04T09:34:04;29.30;50.80
16643;DHT22;8435;52.184;5.406;2023-06-04T09:36:32;29.30;50.20
16643;DHT22;8435;52.184;5.406;2023-06-04T09:39:00;29.30;50.30
16643;DHT22;8435;52.184;5.406;2023-06-04T09:41:33;29.40;50.10
16643;DHT22;8435;52.184;5.406;2023-06-04T09:44:03;29.40;49.80
16643;DHT22;8435;52.184;5.406;2023-06-04T09:46:32;29.40;50.60
16643;DHT22;8435;52.184;5.406;2023-06-04T09:49:00;29.40;49.70
16643;DHT22;8435;52.184;5.406;2023-06-04T09:51:28;29.50;49.50
16643;DHT22;8435;52.184;5.406;2023-06-04T09:53:57;29.60;49.40
16643;DHT22;8435;52.184;5.406;2023-06-04T09:56:24;29.60;49.30
16643;DHT22;8435;52.184;5.406;2023-06-04T09:58:55;29.70;49.10
16643;DHT22;8435;52.184;5.406;2023-06-04T10:01:23;29.80;48.90
16643;DHT22;8435;52.184;5.406;2023-06-04T10:03:52;30.00;48.90
16643;DHT22;8435;52.184;5.406;2023-06-04T10:06:19;30.10;48.50
16643;DHT22;8435;52.184;5.406;2023-06-04T10:08:48;30.20;48.20
16643;DHT22;8435;52.184;5.406;2023-06-04T10:11:25;30.20;48.00
16643;DHT22;8435;52.184;5.406;2023-06-04T10:13:59;30.30;47.20
16643;DHT22;8435;52.184;5.406;2023-06-04T10:16:27;30.20;46.60
16643;DHT22;8435;52.184;5.406;2023-06-04T10:18:57;30.20;47.30
16643;DHT22;8435;52.184;5.406;2023-06-04T10:21:24;30.10;47.00
16643;DHT22;8435;52.184;5.406;2023-06-04T10:23:52;29.90;47.00
16643;DHT22;8435;52.184;5.406;2023-06-04T10:26:19;29.80;47.30
16643;DHT22;8435;52.184;5.406;2023-06-04T10:28:47;29.60;47.10
16643;DHT22;8435;52.184;5.406;2023-06-04T10:31:15;29.50;47.20
16643;DHT22;8435;52.184;5.406;2023-06-04T10:33:42;29.30;47.30
16643;DHT22;8435;52.184;5.406;2023-06-04T10:36:18;29.20;47.50
16643;DHT22;8435;52.184;5.406;2023-06-04T10:38:48;29.10;47.50
16643;DHT22;8435;52.184;5.406;2023-06-04T10:41:16;28.90;47.70
16643;DHT22;8435;52.184;5.406;2023-06-04T10:43:44;28.80;47.60
16643;DHT22;8435;52.184;5.406;2023-06-04T10:46:12;28.60;48.20
16643;DHT22;8435;52.184;5.406;2023-06-04T10:48:45;28.50;48.50
16643;DHT22;8435;52.184;5.406;2023-06-04T10:51:12;28.30;48.40
16643;DHT22;8435;52.184;5.406;2023-06-04T10:53:40;28.30;48.80
16643;DHT22;8435;52.184;5.406;2023-06-04T10:56:07;28.20;49.10
16643;DHT22;8435;52.184;5.406;2023-06-04T10:58:34;28.10;49.40
16643;DHT22;8435;52.184;5.406;2023-06-04T11:01:01;28.00;49.00
16643;DHT22;8435;52.184;5.406;2023-06-04T11:03:35;27.90;49.30
16643;DHT22;8435;52.184;5.406;2023-06-04T11:06:02;27.80;49.50
16643;DHT22;8435;52.184;5.406;2023-06-04T11:08:30;27.70;49.50
16643;DHT22;8435;52.184;5.406;2023-06-04T11:10:58;27.70;50.00
16643;DHT22;8435;52.184;5.406;2023-06-04T11:13:25;27.60;50.30
16643;DHT22;8435;52.184;5.406;2023-06-04T11:15:54;27.50;50.40
16643;DHT22;8435;52.184;5.406;2023-06-04T11:18:22;27.50;50.50
16643;DHT22;8435;52.184;5.406;2023-06-04T11:20:59;27.40;50.70
16643;DHT22;8435;52.184;5.406;2023-06-04T11:23:26;27.40;50.40
16643;DHT22;8435;52.184;5.406;2023-06-04T11:25:53;27.40;50.70
16643;DHT22;8435;52.184;5.406;2023-06-04T11:28:21;27.40;50.60
16643;DHT22;8435;52.184;5.406;2023-06-04T11:31:01;27.40;50.60
16643;DHT22;8435;52.184;5.406;2023-06-04T11:33:29;27.40;50.60
16643;DHT22;8435;52.184;5.406;2023-06-04T11:35:56;27.40;50.70
16643;DHT22;8435;52.184;5.406;2023-06-04T11:38:23;27.30;50.70
16643;DHT22;8435;52.184;5.406;2023-06-04T11:40:58;27.30;50.90
16643;DHT22;8435;52.184;5.406;2023-06-04T11:43:27;27.30;50.80
16643;DHT22;8435;52.184;5.406;2023-06-04T11:45:54;27.30;50.90
16643;DHT22;8435;52.184;5.406;2023-06-04T11:48:21;27.20;50.90
16643;DHT22;8435;52.184;5.406;2023-06-04T11:50:48;27.20;50.70
16643;DHT22;8435;52.184;5.406;2023-06-04T11:53:15;27.20;50.80
16643;DHT22;8435;52.184;5.406;2023-06-04T11:55:44;27.20;50.90
16643;DHT22;8435;52.184;5.406;2023-06-04T11:58:11;27.10;50.90
16643;DHT22;8435;52.184;5.406;2023-06-04T12:00:40;27.10;50.90
16643;DHT22;8435;52.184;5.406;2023-06-04T12:03:07;27.10;51.20
16643;DHT22;8435;52.184;5.406;2023-06-04T12:05:34;27.10;51.40
16643;DHT22;8435;52.184;5.406;2023-06-04T12:08:04;27.10;51.60
16643;DHT22;8435;52.184;5.406;2023-06-04T12:10:37;27.10;51.10
16643;DHT22;8435;52.184;5.406;2023-06-04T12:13:04;27.10;51.20
16643;DHT22;8435;52.184;5.406;2023-06-04T12:15:31;27.10;51.30
16643;DHT22;8435;52.184;5.406;2023-06-04T12:17:59;27.10;51.50
16643;DHT22;8435;52.184;5.406;2023-06-04T12:20:36;27.10;51.60
16643;DHT22;8435;52.184;5.406;2023-06-04T12:23:04;27.10;51.70
16643;DHT22;8435;52.184;5.406;2023-06-04T12:25:32;27.10;51.50
16643;DHT22;8435;52.184;5.406;2023-06-04T12:27:59;27.10;51.50
16643;DHT22;8435;52.184;5.406;2023-06-04T12:30:35;27.10;52.10
16643;DHT22;8435;52.184;5.406;2023-06-04T12:33:03;27.20;51.60
16643;DHT22;8435;52.184;5.406;2023-06-04T12:35:30;27.20;51.80
16643;DHT22;8435;52.184;5.406;2023-06-04T12:37:56;27.20;51.50
16643;DHT22;8435;52.184;5.406;2023-06-04T12:40:23;27.20;51.60
16643;DHT22;8435;52.184;5.406;2023-06-04T12:42:50;27.20;51.30
16643;DHT22;8435;52.184;5.406;2023-06-04T12:45:17;27.20;51.10
16643;DHT22;8435;52.184;5.406;2023-06-04T12:47:44;27.20;51.30
16643;DHT22;8435;52.184;5.406;2023-06-04T12:50:13;27.20;51.60
16643;DHT22;8435;52.184;5.406;2023-06-04T12:52:40;27.20;52.30
16643;DHT22;8435;52.184;5.406;2023-06-04T12:55:07;27.20;52.90
16643;DHT22;8435;52.184;5.406;2023-06-04T12:57:34;27.20;53.10
16643;DHT22;8435;52.184;5.406;2023-06-04T13:00:01;27.20;53.50
16643;DHT22;8435;52.184;5.406;2023-06-04T13:02:29;27.10;53.70
16643;DHT22;8435;52.184;5.406;2023-06-04T13:04:56;27.10;54.00
16643;DHT22;8435;52.184;5.406;2023-06-04T13:07:26;27.10;54.30
16643;DHT22;8435;52.184;5.406;2023-06-04T13:09:53;27.10;54.50
16643;DHT22;8435;52.184;5.406;2023-06-04T13:12:19;27.00;54.50
16643;DHT22;8435;52.184;5.406;2023-06-04T13:14:46;27.00;54.70
16643;DHT22;8435;52.184;5.406;2023-06-04T13:17:13;26.90;54.70
16643;DHT22;8435;52.184;5.406;2023-06-04T13:19:40;26.90;55.00
16643;DHT22;8435;52.184;5.406;2023-06-04T13:22:07;26.80;55.40
16643;DHT22;8435;52.184;5.406;2023-06-04T13:24:36;26.80;54.80
16643;DHT22;8435;52.184;5.406;2023-06-04T13:27:03;26.70;54.90
16643;DHT22;8435;52.184;5.406;2023-06-04T13:29:36;26.70;55.20
16643;DHT22;8435;52.184;5.406;2023-06-04T13:32:03;26.70;55.40
16643;DHT22;8435;52.184;5.406;2023-06-04T13:34:30;26.60;55.50
16643;DHT22;8435;52.184;5.406;2023-06-04T13:36:57;26.60;55.70
16643;DHT22;8435;52.184;5.406;2023-06-04T13:39:27;26.60;55.60
16643;DHT22;8435;52.184;5.406;2023-06-04T13:41:55;26.60;55.70
16643;DHT22;8435;52.184;5.406;2023-06-04T13:44:22;26.50;55.60
16643;DHT22;8435;52.184;5.406;2023-06-04T13:46:51;26.60;55.80
16643;DHT22;8435;52.184;5.406;2023-06-04T13:49:18;26.50;55.70
16643;DHT22;8435;52.184;5.406;2023-06-04T13:51:45;26.50;55.70
16643;DHT22;8435;52.184;5.406;2023-06-04T13:54:11;26.50;55.60
16643;DHT22;8435;52.184;5.406;2023-06-04T13:56:38;26.50;55.70
16643;DHT22;8435;52.184;5.406;2023-06-04T13:59:06;26.40;55.70
16643;DHT22;8435;52.184;5.406;2023-06-04T14:01:33;26.40;55.70
16643;DHT22;8435;52.184;5.406;2023-06-04T14:04:00;26.40;55.70
16643;DHT22;8435;52.184;5.406;2023-06-04T14:06:31;26.40;55.60
16643;DHT22;8435;52.184;5.406;2023-06-04T14:08:57;26.40;55.50
16643;DHT22;8435;52.184;5.406;2023-06-04T14:11:24;26.30;55.50
16643;DHT22;8435;52.184;5.406;2023-06-04T14:13:51;26.30;55.70
16643;DHT22;8435;52.184;5.406;2023-06-04T14:16:19;26.20;55.80
16643;DHT22;8435;52.184;5.406;2023-06-04T14:18:46;26.20;56.00
16643;DHT22;8435;52.184;5.406;2023-06-04T14:21:12;26.20;55.80
16643;DHT22;8435;52.184;5.406;2023-06-04T14:23:42;26.20;55.80
16643;DHT22;8435;52.184;5.406;2023-06-04T14:26:09;26.20;55.80
16643;DHT22;8435;52.184;5.406;2023-06-04T14:28:36;26.20;55.90
16643;DHT22;8435;52.184;5.406;2023-06-04T14:31:02;26.20;55.80
16643;DHT22;8435;52.184;5.406;2023-06-04T14:33:30;26.10;55.70
16643;DHT22;8435;52.184;5.406;2023-06-04T14:35:57;26.10;55.80
16643;DHT22;8435;52.184;5.406;2023-06-04T14:38:24;26.00;55.80
16643;DHT22;8435;52.184;5.406;2023-06-04T14:40:50;26.00;56.00
16643;DHT22;8435;52.184;5.406;2023-06-04T14:43:17;26.00;56.20
16643;DHT22;8435;52.184;5.406;2023-06-04T14:45:44;26.00;56.10
16643;DHT22;8435;52.184;5.406;2023-06-04T14:48:13;25.90;56.40
16643;DHT22;8435;52.184;5.406;2023-06-04T14:50:44;25.90;56.70
16643;DHT22;8435;52.184;5.406;2023-06-04T14:53:12;25.90;56.70
16643;DHT22;8435;52.184;5.406;2023-06-04T14:55:39;25.80;56.80
16643;DHT22;8435;52.184;5.406;2023-06-04T14:58:06;25.90;57.10
16643;DHT22;8435;52.184;5.406;2023-06-04T15:00:33;25.90;57.00
16643;DHT22;8435;52.184;5.406;2023-06-04T15:03:01;25.80;56.80
16643;DHT22;8435;52.184;5.406;2023-06-04T15:05:27;25.90;57.10
16643;DHT22;8435;52.184;5.406;2023-06-04T15:07:55;25.80;57.20
16643;DHT22;8435;52.184;5.406;2023-06-04T15:10:22;25.80;57.40
16643;DHT22;8435;52.184;5.406;2023-06-04T15:12:49;25.90;57.40
16643;DHT22;8435;52.184;5.406;2023-06-04T15:15:16;25.80;57.60
16643;DHT22;8435;52.184;5.406;2023-06-04T15:17:42;25.80;58.40
16643;DHT22;8435;52.184;5.406;2023-06-04T15:20:10;25.80;57.80
16643;DHT22;8435;52.184;5.406;2023-06-04T15:22:37;25.80;58.00
16643;DHT22;8435;52.184;5.406;2023-06-04T15:25:06;25.80;57.90
16643;DHT22;8435;52.184;5.406;2023-06-04T15:27:32;25.70;57.90
16643;DHT22;8435;52.184;5.406;2023-06-04T15:29:59;25.70;57.90
16643;DHT22;8435;52.184;5.406;2023-06-04T15:32:26;25.70;57.90
16643;DHT22;8435;52.184;5.406;2023-06-04T15:34:53;25.70;58.10
16643;DHT22;8435;52.184;5.406;2023-06-04T15:37:20;25.70;58.40
16643;DHT22;8435;52.184;5.406;2023-06-04T15:39:46;25.60;58.40
16643;DHT22;8435;52.184;5.406;2023-06-04T15:42:21;25.60;58.90
16643;DHT22;8435;52.184;5.406;2023-06-04T15:44:50;25.60;58.90
16643;DHT22;8435;52.184;5.406;2023-06-04T15:47:16;25.60;59.00
16643;DHT22;8435;52.184;5.406;2023-06-04T15:49:43;25.60;59.10